sensor_id;sensor_type;location;lat;lon;timestamp;pressure;altitude;pressure_sealevel;temperature;humidity
3598;BME280;1813;52.016;8.714;2023-05-08T00:01:31;-16261.94;;;-139.71;69.13
3598;BME280;1813;52.016;8.714;2023-05-08T00:04:05;-16261.94;;;-139.71;69.41
3598;BME280;1813;52.016;8.714;2023-05-08T00:06:39;-16261.94;;;-139.71;69.57
3598;BME280;1813;52.016;8.714;2023-05-08T00:09:13;-16261.94;;;-139.71;69.63
3598;BME280;1813;52.016;8.714;2023-05-08T00:11:47;-16261.94;;;-139.71;69.89
3598;BME280;1813;52.016;8.714;2023-05-08T00:14:23;-16261.94;;;-139.71;70.02
3598;BME280;1813;52.016;8.714;2023-05-08T00:16:57;-16261.94;;;-139.71;69.98
3598;BME280;1813;52.016;8.714;2023-05-08T00:19:31;-16261.94;;;-139.71;69.97
3598;BME280;1813;52.016;8.714;2023-05-08T00:22:05;-16261.94;;;-139.71;70.15
3598;BME280;1813;52.016;8.714;2023-05-08T00:24:39;-16261.94;;;-139.71;70.08
3598;BME280;1813;52.016;8.714;2023-05-08T00:27:13;-16261.94;;;-139.71;69.93
3598;BME280;1813;52.016;8.714;2023-05-08T00:29:50;-16261.94;;;-139.71;69.79
3598;BME280;1813;52.016;8.714;2023-05-08T00:32:24;-16261.94;;;-139.71;69.71
3598;BME280;1813;52.016;8.714;2023-05-08T00:34:58;-16261.94;;;-139.71;69.69
3598;BME280;1813;52.016;8.714;2023-05-08T00:37:32;-16261.94;;;-139.71;69.67
3598;BME280;1813;52.016;8.714;2023-05-08T00:40:08;-16261.94;;;-139.71;69.88
3598;BME280;1813;52.016;8.714;2023-05-08T00:42:42;-16261.94;;;-139.71;69.99
3598;BME280;1813;52.016;8.714;2023-05-08T00:45:19;-16261.94;;;-139.71;70.04
3598;BME280;1813;52.016;8.714;2023-05-08T00:47:53;-16261.94;;;-139.71;70.16
3598;BME280;1813;52.016;8.714;2023-05-08T00:50:26;-16261.94;;;-139.71;70.30
3598;BME280;1813;52.016;8.714;2023-05-08T00:53:01;-16261.94;;;-139.71;70.37
3598;BME280;1813;52.016;8.714;2023-05-08T00:55:36;-16261.94;;;-139.71;70.29
3598;BME280;1813;52.016;8.714;2023-05-08T00:58:18;-16261.94;;;-139.71;70.49
3598;BME280;1813;52.016;8.714;2023-05-08T01:00:55;-16261.94;;;-139.71;70.47
3598;BME280;1813;52.016;8.714;2023-05-08T01:03:31;-16261.94;;;-139.71;70.54
3598;BME280;1813;52.016;8.714;2023-05-08T01:06:06;-16261.94;;;-139.71;70.62
3598;BME280;1813;52.016;8.714;2023-05-08T01:08:41;-16261.94;;;-139.71;70.67
3598;BME280;1813;52.016;8.714;2023-05-08T01:11:27;-16261.94;;;-139.71;70.55
3598;BME280;1813;52.016;8.714;2023-05-08T01:14:08;-16261.94;;;-139.71;70.72
3598;BME280;1813;52.016;8.714;2023-05-08T01:16:52;-16261.94;;;-139.71;70.65
3598;BME280;1813;52.016;8.714;2023-05-08T01:19:41;-16261.94;;;-139.71;70.87
3598;BME280;1813;52.016;8.714;2023-05-08T01:25:54;-16261.94;;;-139.71;71.17
3598;BME280;1813;52.016;8.714;2023-05-08T01:34:56;-16261.94;;;-139.71;71.40
3598;BME280;1813;52.016;8.714;2023-05-08T01:37:36;-16261.94;;;-139.71;71.56
3598;BME280;1813;52.016;8.714;2023-05-08T01:40:18;-16261.94;;;-139.71;71.67
3598;BME280;1813;52.016;8.714;2023-05-08T01:43:04;-16261.94;;;-139.71;71.58
3598;BME280;1813;52.016;8.714;2023-05-08T01:45:44;-16261.94;;;-139.71;71.74
3598;BME280;1813;52.016;8.714;2023-05-08T01:48:23;-16261.94;;;-139.71;71.63
3598;BME280;1813;52.016;8.714;2023-05-08T01:51:04;-16261.94;;;-139.71;71.81
3598;BME280;1813;52.016;8.714;2023-05-08T01:53:42;-16261.94;;;-139.71;71.87
3598;BME280;1813;52.016;8.714;2023-05-08T01:56:20;-16261.94;;;-139.71;71.90
3598;BME280;1813;52.016;8.714;2023-05-08T01:58:57;-16261.94;;;-139.71;72.11
3598;BME280;1813;52.016;8.714;2023-05-08T02:01:32;-16261.94;;;-139.71;72.22
3598;BME280;1813;52.016;8.714;2023-05-08T02:04:07;-16261.94;;;-139.71;72.39
3598;BME280;1813;52.016;8.714;2023-05-08T02:06:45;-16261.94;;;-139.71;72.49
3598;BME280;1813;52.016;8.714;2023-05-08T02:09:20;-16261.94;;;-139.71;72.54
3598;BME280;1813;52.016;8.714;2023-05-08T02:11:56;-16261.94;;;-139.71;72.71
3598;BME280;1813;52.016;8.714;2023-05-08T02:14:31;-16261.94;;;-139.71;72.65
3598;BME280;1813;52.016;8.714;2023-05-08T02:17:06;-16261.94;;;-139.71;72.67
3598;BME280;1813;52.016;8.714;2023-05-08T02:19:43;-16261.94;;;-139.71;72.71
3598;BME280;1813;52.016;8.714;2023-05-08T02:22:22;-16261.94;;;-139.71;72.54
3598;BME280;1813;52.016;8.714;2023-05-08T02:24:56;-16261.94;;;-139.71;72.62
3598;BME280;1813;52.016;8.714;2023-05-08T02:27:31;-16261.94;;;-139.71;72.67
3598;BME280;1813;52.016;8.714;2023-05-08T02:30:07;-16261.94;;;-139.71;72.68
3598;BME280;1813;52.016;8.714;2023-05-08T02:32:42;-16261.94;;;-139.71;72.92
3598;BME280;1813;52.016;8.714;2023-05-08T02:35:18;-16261.94;;;-139.71;72.92
3598;BME280;1813;52.016;8.714;2023-05-08T02:37:56;-16261.94;;;-139.71;72.91
3598;BME280;1813;52.016;8.714;2023-05-08T02:40:31;-16261.94;;;-139.71;73.02
3598;BME280;1813;52.016;8.714;2023-05-08T02:43:05;-16261.94;;;-139.71;72.94
3598;BME280;1813;52.016;8.714;2023-05-08T02:45:53;-16261.94;;;-139.71;72.98
3598;BME280;1813;52.016;8.714;2023-05-08T02:48:33;-16261.94;;;-139.71;72.97
3598;BME280;1813;52.016;8.714;2023-05-08T02:51:17;-16261.94;;;-139.71;72.89
3598;BME280;1813;52.016;8.714;2023-05-08T02:53:58;-16261.94;;;-139.71;72.97
3598;BME280;1813;52.016;8.714;2023-05-08T02:56:37;-16261.94;;;-139.71;72.95
3598;BME280;1813;52.016;8.714;2023-05-08T02:59:15;-16261.94;;;-139.71;73.12
3598;BME280;1813;52.016;8.714;2023-05-08T03:01:53;-16261.94;;;-139.71;73.07
3598;BME280;1813;52.016;8.714;2023-05-08T03:04:35;-16261.94;;;-139.71;73.27
3598;BME280;1813;52.016;8.714;2023-05-08T03:07:11;-16261.94;;;-139.71;73.28
3598;BME280;1813;52.016;8.714;2023-05-08T03:09:50;-16261.94;;;-139.71;73.25
3598;BME280;1813;52.016;8.714;2023-05-08T03:12:27;-16261.94;;;-139.71;73.40
3598;BME280;1813;52.016;8.714;2023-05-08T03:15:05;-16261.94;;;-139.71;73.32
3598;BME280;1813;52.016;8.714;2023-05-08T03:17:42;-16261.94;;;-139.71;73.48
3598;BME280;1813;52.016;8.714;2023-05-08T03:20:17;-16261.94;;;-139.71;73.53
3598;BME280;1813;52.016;8.714;2023-05-08T03:22:53;-16261.94;;;-139.71;73.27
3598;BME280;1813;52.016;8.714;2023-05-08T03:25:31;-16261.94;;;-139.71;73.40
3598;BME280;1813;52.016;8.714;2023-05-08T03:28:08;-16261.94;;;-139.71;73.31
3598;BME280;1813;52.016;8.714;2023-05-08T03:30:43;-16261.94;;;-139.71;73.62
3598;BME280;1813;52.016;8.714;2023-05-08T03:33:20;-16261.94;;;-139.71;73.41
3598;BME280;1813;52.016;8.714;2023-05-08T03:35:57;-16261.94;;;-139.71;73.48
3598;BME280;1813;52.016;8.714;2023-05-08T03:38:33;-16261.94;;;-139.71;73.61
3598;BME280;1813;52.016;8.714;2023-05-08T03:41:11;-16261.94;;;-139.71;73.66
3598;BME280;1813;52.016;8.714;2023-05-08T03:43:45;-16261.94;;;-139.71;73.70
3598;BME280;1813;52.016;8.714;2023-05-08T03:46:20;-16261.94;;;-139.71;73.72
3598;BME280;1813;52.016;8.714;2023-05-08T03:48:54;-16261.94;;;-139.71;73.79
3598;BME280;1813;52.016;8.714;2023-05-08T03:51:30;-16261.94;;;-139.71;73.90
3598;BME280;1813;52.016;8.714;2023-05-08T03:54:07;-16261.94;;;-139.71;73.87
3598;BME280;1813;52.016;8.714;2023-05-08T03:56:43;-16261.94;;;-139.71;74.02
3598;BME280;1813;52.016;8.714;2023-05-08T03:59:23;-16261.94;;;-139.71;73.95
3598;BME280;1813;52.016;8.714;2023-05-08T04:02:10;-16261.94;;;-139.71;73.98
3598;BME280;1813;52.016;8.714;2023-05-08T04:04:47;-16261.94;;;-139.71;74.22
3598;BME280;1813;52.016;8.714;2023-05-08T04:07:27;-16261.94;;;-139.71;74.07
3598;BME280;1813;52.016;8.714;2023-05-08T04:10:07;-16261.94;;;-139.71;74.30
3598;BME280;1813;52.016;8.714;2023-05-08T04:12:59;-16261.94;;;-139.71;74.10
3598;BME280;1813;52.016;8.714;2023-05-08T04:15:43;-16261.94;;;-139.71;74.18
3598;BME280;1813;52.016;8.714;2023-05-08T04:18:21;-16261.94;;;-139.71;74.15
3598;BME280;1813;52.016;8.714;2023-05-08T04:20:56;-16261.94;;;-139.71;74.09
3598;BME280;1813;52.016;8.714;2023-05-08T04:23:33;-16261.94;;;-139.71;74.00
3598;BME280;1813;52.016;8.714;2023-05-08T04:26:07;-16261.94;;;-139.71;74.33
3598;BME280;1813;52.016;8.714;2023-05-08T04:28:49;-16261.94;;;-139.71;74.35
3598;BME280;1813;52.016;8.714;2023-05-08T04:31:23;-16261.94;;;-139.71;74.36
3598;BME280;1813;52.016;8.714;2023-05-08T04:33:58;-16261.94;;;-139.71;74.37
3598;BME280;1813;52.016;8.714;2023-05-08T04:36:33;-16261.94;;;-139.71;74.49
3598;BME280;1813;52.016;8.714;2023-05-08T04:39:09;-16261.94;;;-139.71;74.54
3598;BME280;1813;52.016;8.714;2023-05-08T04:41:43;-16261.94;;;-139.71;74.34
3598;BME280;1813;52.016;8.714;2023-05-08T04:44:21;-16261.94;;;-139.71;74.49
3598;BME280;1813;52.016;8.714;2023-05-08T04:46:55;-16261.94;;;-139.71;74.40
3598;BME280;1813;52.016;8.714;2023-05-08T04:49:30;-16261.94;;;-139.71;74.44
3598;BME280;1813;52.016;8.714;2023-05-08T04:52:04;-16261.94;;;-139.71;74.19
3598;BME280;1813;52.016;8.714;2023-05-08T04:54:39;-16261.94;;;-139.71;74.45
3598;BME280;1813;52.016;8.714;2023-05-08T04:57:13;-16261.94;;;-139.71;74.59
3598;BME280;1813;52.016;8.714;2023-05-08T04:59:49;-16261.94;;;-139.71;74.72
3598;BME280;1813;52.016;8.714;2023-05-08T05:02:24;-16261.94;;;-139.71;74.60
3598;BME280;1813;52.016;8.714;2023-05-08T05:04:58;-16261.94;;;-139.71;74.55
3598;BME280;1813;52.016;8.714;2023-05-08T05:07:34;-16261.94;;;-139.71;74.64
3598;BME280;1813;52.016;8.714;2023-05-08T05:10:09;-16261.94;;;-139.71;74.72
3598;BME280;1813;52.016;8.714;2023-05-08T05:12:42;-16261.94;;;-139.71;74.55
3598;BME280;1813;52.016;8.714;2023-05-08T05:15:19;-16261.94;;;-139.71;74.24
3598;BME280;1813;52.016;8.714;2023-05-08T05:17:53;-16261.94;;;-139.71;74.49
3598;BME280;1813;52.016;8.714;2023-05-08T05:20:27;-16261.94;;;-139.71;74.15
3598;BME280;1813;52.016;8.714;2023-05-08T05:23:03;-16261.94;;;-139.71;73.98
3598;BME280;1813;52.016;8.714;2023-05-08T05:25:37;-16261.94;;;-139.71;73.71
3598;BME280;1813;52.016;8.714;2023-05-08T05:28:11;-16261.94;;;-139.71;73.60
3598;BME280;1813;52.016;8.714;2023-05-08T05:30:48;-16261.94;;;-139.71;73.98
3598;BME280;1813;52.016;8.714;2023-05-08T05:33:22;-16261.94;;;-139.71;73.78
3598;BME280;1813;52.016;8.714;2023-05-08T05:35:56;-16261.94;;;-139.71;73.76
3598;BME280;1813;52.016;8.714;2023-05-08T05:38:30;-16261.94;;;-139.71;73.78
3598;BME280;1813;52.016;8.714;2023-05-08T05:41:05;-16261.94;;;-139.71;73.58
3598;BME280;1813;52.016;8.714;2023-05-08T05:43:38;-16261.94;;;-139.71;73.01
3598;BME280;1813;52.016;8.714;2023-05-08T05:46:15;-16261.94;;;-139.71;73.45
3598;BME280;1813;52.016;8.714;2023-05-08T05:48:51;-16261.94;;;-139.71;73.12
3598;BME280;1813;52.016;8.714;2023-05-08T05:51:25;-16261.94;;;-139.71;72.64
3598;BME280;1813;52.016;8.714;2023-05-08T05:53:59;-16261.94;;;-139.71;72.27
3598;BME280;1813;52.016;8.714;2023-05-08T05:56:33;-16261.94;;;-139.71;72.22
3598;BME280;1813;52.016;8.714;2023-05-08T05:59:08;-16261.94;;;-139.71;72.11
3598;BME280;1813;52.016;8.714;2023-05-08T06:01:45;-16261.94;;;-139.71;72.12
3598;BME280;1813;52.016;8.714;2023-05-08T06:04:19;-16261.94;;;-139.71;71.48
3598;BME280;1813;52.016;8.714;2023-05-08T06:06:52;-16261.94;;;-139.71;71.31
3598;BME280;1813;52.016;8.714;2023-05-08T06:09:26;-16261.94;;;-139.71;71.19
3598;BME280;1813;52.016;8.714;2023-05-08T06:12:00;-16261.94;;;-139.71;70.79
3598;BME280;1813;52.016;8.714;2023-05-08T06:14:35;-16261.94;;;-139.71;70.68
3598;BME280;1813;52.016;8.714;2023-05-08T06:17:12;-16261.94;;;-139.71;70.52
3598;BME280;1813;52.016;8.714;2023-05-08T06:19:45;-16261.94;;;-139.71;70.42
3598;BME280;1813;52.016;8.714;2023-05-08T06:22:20;-16261.94;;;-139.71;70.42
3598;BME280;1813;52.016;8.714;2023-05-08T06:24:54;-16261.94;;;-139.71;70.50
3598;BME280;1813;52.016;8.714;2023-05-08T06:27:28;-16261.94;;;-139.71;69.88
3598;BME280;1813;52.016;8.714;2023-05-08T06:30:02;-16261.94;;;-139.71;70.06
3598;BME280;1813;52.016;8.714;2023-05-08T06:32:40;-16261.94;;;-139.71;70.54
3598;BME280;1813;52.016;8.714;2023-05-08T06:35:14;-16261.94;;;-139.71;68.99
3598;BME280;1813;52.016;8.714;2023-05-08T06:37:52;-16261.94;;;-139.71;68.21
3598;BME280;1813;52.016;8.714;2023-05-08T06:40:26;-16261.94;;;-139.71;67.89
3598;BME280;1813;52.016;8.714;2023-05-08T06:43:00;-16261.94;;;-139.71;68.13
3598;BME280;1813;52.016;8.714;2023-05-08T06:45:33;-16261.94;;;-139.71;66.70
3598;BME280;1813;52.016;8.714;2023-05-08T06:48:10;-16261.94;;;-139.71;65.04
3598;BME280;1813;52.016;8.714;2023-05-08T06:50:43;-16261.94;;;-139.71;64.16
3598;BME280;1813;52.016;8.714;2023-05-08T06:53:17;-16261.94;;;-139.71;64.38
3598;BME280;1813;52.016;8.714;2023-05-08T06:55:51;-16261.94;;;-139.71;63.79
3598;BME280;1813;52.016;8.714;2023-05-08T06:58:25;-16261.94;;;-139.71;65.24
3598;BME280;1813;52.016;8.714;2023-05-08T07:01:01;-16261.94;;;-139.71;61.45
3598;BME280;1813;52.016;8.714;2023-05-08T07:03:37;-16261.94;;;-139.71;61.79
3598;BME280;1813;52.016;8.714;2023-05-08T07:06:11;-16261.94;;;-139.71;60.63
3598;BME280;1813;52.016;8.714;2023-05-08T07:08:45;-16261.94;;;-139.71;60.82
3598;BME280;1813;52.016;8.714;2023-05-08T07:11:19;-16261.94;;;-139.71;59.73
3598;BME280;1813;52.016;8.714;2023-05-08T07:13:53;-16261.94;;;-139.71;59.37
3598;BME280;1813;52.016;8.714;2023-05-08T07:16:26;-16261.94;;;-139.71;60.62
3598;BME280;1813;52.016;8.714;2023-05-08T07:19:03;-16261.94;;;-139.71;59.70
3598;BME280;1813;52.016;8.714;2023-05-08T07:21:36;-16261.94;;;-139.71;57.93
3598;BME280;1813;52.016;8.714;2023-05-08T07:24:11;-16261.94;;;-139.71;57.03
3598;BME280;1813;52.016;8.714;2023-05-08T07:26:45;-16261.94;;;-139.71;57.27
3598;BME280;1813;52.016;8.714;2023-05-08T07:29:18;-16261.94;;;-139.71;55.96
3598;BME280;1813;52.016;8.714;2023-05-08T07:31:52;-16261.94;;;-139.71;55.11
3598;BME280;1813;52.016;8.714;2023-05-08T07:34:29;-16261.94;;;-139.71;54.71
3598;BME280;1813;52.016;8.714;2023-05-08T07:37:05;-16261.94;;;-139.71;54.70
3598;BME280;1813;52.016;8.714;2023-05-08T07:39:39;-16261.94;;;-139.71;54.46
3598;BME280;1813;52.016;8.714;2023-05-08T07:42:13;-16261.94;;;-139.71;53.41
3598;BME280;1813;52.016;8.714;2023-05-08T07:44:48;-16261.94;;;-139.71;53.68
3598;BME280;1813;52.016;8.714;2023-05-08T07:47:22;-16261.94;;;-139.71;54.35
3598;BME280;1813;52.016;8.714;2023-05-08T07:49:58;-16261.94;;;-139.71;52.80
3598;BME280;1813;52.016;8.714;2023-05-08T07:52:32;-16261.94;;;-139.71;51.45
3598;BME280;1813;52.016;8.714;2023-05-08T07:55:07;-16261.94;;;-139.71;51.83
3598;BME280;1813;52.016;8.714;2023-05-08T07:57:42;-16261.94;;;-139.71;52.65
3598;BME280;1813;52.016;8.714;2023-05-08T08:00:17;-16261.94;;;-139.71;52.38
3598;BME280;1813;52.016;8.714;2023-05-08T08:02:51;-16261.94;;;-139.71;52.90
3598;BME280;1813;52.016;8.714;2023-05-08T08:05:28;-16261.94;;;-139.71;53.07
3598;BME280;1813;52.016;8.714;2023-05-08T08:08:02;-16261.94;;;-139.71;52.75
3598;BME280;1813;52.016;8.714;2023-05-08T08:10:36;-16261.94;;;-139.71;52.51
3598;BME280;1813;52.016;8.714;2023-05-08T08:13:10;-16261.94;;;-139.71;51.84
3598;BME280;1813;52.016;8.714;2023-05-08T08:15:44;-16261.94;;;-139.71;52.17
3598;BME280;1813;52.016;8.714;2023-05-08T08:18:18;-16261.94;;;-139.71;51.79
3598;BME280;1813;52.016;8.714;2023-05-08T08:21:07;-16261.94;;;-139.71;50.19
3598;BME280;1813;52.016;8.714;2023-05-08T08:23:40;-16261.94;;;-139.71;50.78
3598;BME280;1813;52.016;8.714;2023-05-08T08:26:14;-16261.94;;;-139.71;50.89
3598;BME280;1813;52.016;8.714;2023-05-08T08:28:48;-16261.94;;;-139.71;51.81
3598;BME280;1813;52.016;8.714;2023-05-08T08:31:22;-16261.94;;;-139.71;52.39
3598;BME280;1813;52.016;8.714;2023-05-08T08:33:55;-16261.94;;;-139.71;50.29
3598;BME280;1813;52.016;8.714;2023-05-08T08:36:32;-16261.94;;;-139.71;52.10
3598;BME280;1813;52.016;8.714;2023-05-08T08:39:11;-16261.94;;;-139.71;51.25
3598;BME280;1813;52.016;8.714;2023-05-08T08:41:45;-16261.94;;;-139.71;51.41
3598;BME280;1813;52.016;8.714;2023-05-08T08:44:19;-16261.94;;;-139.71;50.41
3598;BME280;1813;52.016;8.714;2023-05-08T08:46:54;-16261.94;;;-139.71;51.79
3598;BME280;1813;52.016;8.714;2023-05-08T08:49:31;-16261.94;;;-139.71;51.62
3598;BME280;1813;52.016;8.714;2023-05-08T08:55:01;-16261.94;;;-139.71;51.18
3598;BME280;1813;52.016;8.714;2023-05-08T08:57:44;-16261.94;;;-139.71;50.92
3598;BME280;1813;52.016;8.714;2023-05-08T09:00:20;-16261.94;;;-139.71;51.35
3598;BME280;1813;52.016;8.714;2023-05-08T09:02:54;-16261.94;;;-139.71;50.08
3598;BME280;1813;52.016;8.714;2023-05-08T09:05:28;-16261.94;;;-139.71;49.70
3598;BME280;1813;52.016;8.714;2023-05-08T09:08:05;-16261.94;;;-139.71;49.56
3598;BME280;1813;52.016;8.714;2023-05-08T09:10:39;-16261.94;;;-139.71;48.78
3598;BME280;1813;52.016;8.714;2023-05-08T09:13:13;-16261.94;;;-139.71;48.83
3598;BME280;1813;52.016;8.714;2023-05-08T09:15:49;-16261.94;;;-139.71;50.30
3598;BME280;1813;52.016;8.714;2023-05-08T09:18:22;-16261.94;;;-139.71;51.84
3598;BME280;1813;52.016;8.714;2023-05-08T09:20:58;-16261.94;;;-139.71;47.69
3598;BME280;1813;52.016;8.714;2023-05-08T09:23:53;-16261.94;;;-139.71;49.33
3598;BME280;1813;52.016;8.714;2023-05-08T09:26:29;-16261.94;;;-139.71;48.92
3598;BME280;1813;52.016;8.714;2023-05-08T09:29:10;-16261.94;;;-139.71;49.31
3598;BME280;1813;52.016;8.714;2023-05-08T09:31:46;-16261.94;;;-139.71;49.55
3598;BME280;1813;52.016;8.714;2023-05-08T09:34:24;-16261.94;;;-139.71;48.07
3598;BME280;1813;52.016;8.714;2023-05-08T09:37:11;-16261.94;;;-139.71;48.91
3598;BME280;1813;52.016;8.714;2023-05-08T09:39:48;-16261.94;;;-139.71;49.56
3598;BME280;1813;52.016;8.714;2023-05-08T09:42:22;-16261.94;;;-139.71;49.36
3598;BME280;1813;52.016;8.714;2023-05-08T09:44:55;-16261.94;;;-139.71;47.62
3598;BME280;1813;52.016;8.714;2023-05-08T09:47:30;-16261.94;;;-139.71;47.45
3598;BME280;1813;52.016;8.714;2023-05-08T09:50:06;-16261.94;;;-139.71;49.88
3598;BME280;1813;52.016;8.714;2023-05-08T09:52:45;-16261.94;;;-139.71;49.17
3598;BME280;1813;52.016;8.714;2023-05-08T09:55:22;-16261.94;;;-139.71;49.41
3598;BME280;1813;52.016;8.714;2023-05-08T09:57:58;-16261.94;;;-139.71;48.20
3598;BME280;1813;52.016;8.714;2023-05-08T10:00:37;-16261.94;;;-139.71;46.61
3598;BME280;1813;52.016;8.714;2023-05-08T10:03:11;-16261.94;;;-139.71;47.00
3598;BME280;1813;52.016;8.714;2023-05-08T10:05:45;-16261.94;;;-139.71;47.55
3598;BME280;1813;52.016;8.714;2023-05-08T10:08:21;-16261.94;;;-139.71;46.22
3598;BME280;1813;52.016;8.714;2023-05-08T10:43:35;-16261.94;;;-139.71;50.46
3598;BME280;1813;52.016;8.714;2023-05-08T10:46:15;-16261.94;;;-139.71;49.29
3598;BME280;1813;52.016;8.714;2023-05-08T10:48:57;-16261.94;;;-139.71;50.53
3598;BME280;1813;52.016;8.714;2023-05-08T10:51:41;-16261.94;;;-139.71;48.36
3598;BME280;1813;52.016;8.714;2023-05-08T10:54:20;-16261.94;;;-139.71;48.47
3598;BME280;1813;52.016;8.714;2023-05-08T10:57:07;-16261.94;;;-139.71;46.53
3598;BME280;1813;52.016;8.714;2023-05-08T10:59:46;-16261.94;;;-139.71;46.67
3598;BME280;1813;52.016;8.714;2023-05-08T11:02:25;-16261.94;;;-139.71;45.76
3598;BME280;1813;52.016;8.714;2023-05-08T11:05:17;-16261.94;;;-139.71;45.17
3598;BME280;1813;52.016;8.714;2023-05-08T11:07:54;-16261.94;;;-139.71;45.38
3598;BME280;1813;52.016;8.714;2023-05-08T11:10:29;-16261.94;;;-139.71;43.35
3598;BME280;1813;52.016;8.714;2023-05-08T11:13:07;-16261.94;;;-139.71;44.36
3598;BME280;1813;52.016;8.714;2023-05-08T11:15:49;-16261.94;;;-139.71;45.01
3598;BME280;1813;52.016;8.714;2023-05-08T11:18:25;-16261.94;;;-139.71;43.78
3598;BME280;1813;52.016;8.714;2023-05-08T11:21:01;-16261.94;;;-139.71;42.73
3598;BME280;1813;52.016;8.714;2023-05-08T11:23:36;-16261.94;;;-139.71;42.37
3598;BME280;1813;52.016;8.714;2023-05-08T11:26:12;-16261.94;;;-139.71;43.70
3598;BME280;1813;52.016;8.714;2023-05-08T11:28:57;-16261.94;;;-139.71;42.46
3598;BME280;1813;52.016;8.714;2023-05-08T11:31:51;-16261.94;;;-139.71;41.37
3598;BME280;1813;52.016;8.714;2023-05-08T11:34:46;-16261.94;;;-139.71;41.59
3598;BME280;1813;52.016;8.714;2023-05-08T11:37:22;-16261.94;;;-139.71;41.62
3598;BME280;1813;52.016;8.714;2023-05-08T11:43:19;-16261.94;;;-139.71;41.13
3598;BME280;1813;52.016;8.714;2023-05-08T11:45:59;-16261.94;;;-139.71;40.25
3598;BME280;1813;52.016;8.714;2023-05-08T11:48:36;-16261.94;;;-139.71;42.13
3598;BME280;1813;52.016;8.714;2023-05-08T11:51:10;-16261.94;;;-139.71;40.83
3598;BME280;1813;52.016;8.714;2023-05-08T11:53:44;-16261.94;;;-139.71;41.47
3598;BME280;1813;52.016;8.714;2023-05-08T11:56:18;-16261.94;;;-139.71;42.21
3598;BME280;1813;52.016;8.714;2023-05-08T11:59:01;-16261.94;;;-139.71;42.30
3598;BME280;1813;52.016;8.714;2023-05-08T12:01:36;-16261.94;;;-139.71;42.38
3598;BME280;1813;52.016;8.714;2023-05-08T12:04:13;-16261.94;;;-139.71;42.72
3598;BME280;1813;52.016;8.714;2023-05-08T12:06:47;-16261.94;;;-139.71;41.11
3598;BME280;1813;52.016;8.714;2023-05-08T12:09:23;-16261.94;;;-139.71;42.13
3598;BME280;1813;52.016;8.714;2023-05-08T12:11:57;-16261.94;;;-139.71;42.38
3598;BME280;1813;52.016;8.714;2023-05-08T12:14:33;-16261.94;;;-139.71;41.76
3598;BME280;1813;52.016;8.714;2023-05-08T12:17:07;-16261.94;;;-139.71;42.14
3598;BME280;1813;52.016;8.714;2023-05-08T12:19:45;-16261.94;;;-139.71;42.23
3598;BME280;1813;52.016;8.714;2023-05-08T12:22:20;-16261.94;;;-139.71;43.30
3598;BME280;1813;52.016;8.714;2023-05-08T12:24:54;-16261.94;;;-139.71;43.33
3598;BME280;1813;52.016;8.714;2023-05-08T12:27:30;-16261.94;;;-139.71;43.52
3598;BME280;1813;52.016;8.714;2023-05-08T12:30:05;-16261.94;;;-139.71;42.87
3598;BME280;1813;52.016;8.714;2023-05-08T12:32:41;-16261.94;;;-139.71;41.88
3598;BME280;1813;52.016;8.714;2023-05-08T12:35:18;-16261.94;;;-139.71;42.47
3598;BME280;1813;52.016;8.714;2023-05-08T12:37:53;-16261.94;;;-139.71;42.40
3598;BME280;1813;52.016;8.714;2023-05-08T12:40:28;-16261.94;;;-139.71;43.15
3598;BME280;1813;52.016;8.714;2023-05-08T12:43:03;-16261.94;;;-139.71;44.62
3598;BME280;1813;52.016;8.714;2023-05-08T12:45:38;-16261.94;;;-139.71;44.48
3598;BME280;1813;52.016;8.714;2023-05-08T12:48:13;-16261.94;;;-139.71;42.15
3598;BME280;1813;52.016;8.714;2023-05-08T12:50:52;-16261.94;;;-139.71;41.79
3598;BME280;1813;52.016;8.714;2023-05-08T12:53:29;-16261.94;;;-139.71;41.36
3598;BME280;1813;52.016;8.714;2023-05-08T12:56:04;-16261.94;;;-139.71;41.54
3598;BME280;1813;52.016;8.714;2023-05-08T12:58:38;-16261.94;;;-139.71;41.26
3598;BME280;1813;52.016;8.714;2023-05-08T13:01:12;-16261.94;;;-139.71;41.13
3598;BME280;1813;52.016;8.714;2023-05-08T13:03:51;-16261.94;;;-139.71;41.80
3598;BME280;1813;52.016;8.714;2023-05-08T13:06:28;-16261.94;;;-139.71;44.00
3598;BME280;1813;52.016;8.714;2023-05-08T13:09:03;-16261.94;;;-139.71;43.78
3598;BME280;1813;52.016;8.714;2023-05-08T13:11:38;-16261.94;;;-139.71;42.71
3598;BME280;1813;52.016;8.714;2023-05-08T13:14:12;-16261.94;;;-139.71;42.26
3598;BME280;1813;52.016;8.714;2023-05-08T13:16:46;-16261.94;;;-139.71;43.25
3598;BME280;1813;52.016;8.714;2023-05-08T13:19:21;-16261.94;;;-139.71;43.19
3598;BME280;1813;52.016;8.714;2023-05-08T13:21:59;-16261.94;;;-139.71;41.82
3598;BME280;1813;52.016;8.714;2023-05-08T13:24:33;-16261.94;;;-139.71;40.09
3598;BME280;1813;52.016;8.714;2023-05-08T13:27:10;-16261.94;;;-139.71;40.90
3598;BME280;1813;52.016;8.714;2023-05-08T13:29:44;-16261.94;;;-139.71;42.76
3598;BME280;1813;52.016;8.714;2023-05-08T13:32:18;-16261.94;;;-139.71;41.61
3598;BME280;1813;52.016;8.714;2023-05-08T13:34:51;-16261.94;;;-139.71;41.93
3598;BME280;1813;52.016;8.714;2023-05-08T13:37:29;-16261.94;;;-139.71;42.37
3598;BME280;1813;52.016;8.714;2023-05-08T13:40:04;-16261.94;;;-139.71;42.44
3598;BME280;1813;52.016;8.714;2023-05-08T13:42:39;-16261.94;;;-139.71;42.48
3598;BME280;1813;52.016;8.714;2023-05-08T13:45:13;-16261.94;;;-139.71;40.38
3598;BME280;1813;52.016;8.714;2023-05-08T13:47:48;-16261.94;;;-139.71;39.61
3598;BME280;1813;52.016;8.714;2023-05-08T13:50:23;-16261.94;;;-139.71;39.71
3598;BME280;1813;52.016;8.714;2023-05-08T13:53:00;-16261.94;;;-139.71;39.53
3598;BME280;1813;52.016;8.714;2023-05-08T13:55:35;-16261.94;;;-139.71;39.57
3598;BME280;1813;52.016;8.714;2023-05-08T13:58:09;-16261.94;;;-139.71;39.09
3598;BME280;1813;52.016;8.714;2023-05-08T14:00:43;-16261.94;;;-139.71;39.68
3598;BME280;1813;52.016;8.714;2023-05-08T14:03:19;-16261.94;;;-139.71;39.71
3598;BME280;1813;52.016;8.714;2023-05-08T14:05:53;-16261.94;;;-139.71;39.81
3598;BME280;1813;52.016;8.714;2023-05-08T14:08:29;-16261.94;;;-139.71;38.02
3598;BME280;1813;52.016;8.714;2023-05-08T14:11:04;-16261.94;;;-139.71;39.20
3598;BME280;1813;52.016;8.714;2023-05-08T14:13:39;-16261.94;;;-139.71;38.76
3598;BME280;1813;52.016;8.714;2023-05-08T14:16:14;-16261.94;;;-139.71;38.83
3598;BME280;1813;52.016;8.714;2023-05-08T14:18:48;-16261.94;;;-139.71;37.76
3598;BME280;1813;52.016;8.714;2023-05-08T14:21:22;-16261.94;;;-139.71;37.66
3598;BME280;1813;52.016;8.714;2023-05-08T14:24:02;-16261.94;;;-139.71;38.84
3598;BME280;1813;52.016;8.714;2023-05-08T14:26:36;-16261.94;;;-139.71;38.57